Terminal Aerodrome Forecast
Issued by NWS Bismarck, ND

Home | Current Version | Previous Version | Graphics & Text | Print | Product List | Glossary On
Versions: 1 2 3 4 5 6 7 8 9 10 11 12 13 14 15 16 17 18 19 20 21 22
000
FTUS43 KBIS 261559 AAC
TAFISN
TAF AMD
KISN 261559Z 2616/2712 22008KT P6SM OVC007
      TEMPO 2616/2618 -SHRA SCT007 BKN015 OVC025
     FM261800 28006KT P6SM VCTS SCT025 BKN050CB
      TEMPO 2618/2622 5SM -TSRA OVC040CB
     FM270200 35009KT P6SM OVC060
     FM271100 36004KT P6SM OVC030=

USA.gov is the U.S. government's official web portal to all federal, state and local government web resources and services.